Time;durP1;ratioP1;P1;durP2;ratioP2;P2;SDS_P1;SDS_P2;PMS_P1;PMS_P2;Temp;Humidity;BMP_temperature;BMP_pressure;BME280_temperature;BME280_humidity;BME280_pressure;Samples;Min_cycle;Max_cycle;Signal;HPM_P1;HPM_P2
2021/03/19 00:01:47;;;;;;;13.63;8.38;;;27.90;84.90;;;;;;5120639;28;20027;-44
2021/03/19 00:04:13;;;;;;;13.38;8.10;;;27.90;85.10;;;;;;5121097;28;20031;-49
2021/03/19 00:06:41;;;;;;;19.73;14.38;;;27.90;85.10;;;;;;5120567;28;20072;-52
2021/03/19 00:09:12;;;;;;;16.33;9.02;;;27.90;85.40;;;;;;5119892;28;20024;-53
2021/03/19 00:11:40;;;;;;;16.92;8.40;;;27.90;85.50;;;;;;5127240;28;20315;-45
2021/03/19 00:14:09;;;;;;;15.30;8.30;;;27.80;85.50;;;;;;5133797;28;20043;-50
2021/03/19 00:16:38;;;;;;;14.98;8.57;;;27.80;85.80;;;;;;5129672;27;20034;-46
2021/03/19 00:19:07;;;;;;;12.80;8.07;;;27.80;85.80;;;;;;5126098;28;20049;-45
2021/03/19 00:21:35;;;;;;;16.40;10.20;;;27.80;85.80;;;;;;5130677;28;20012;-53
2021/03/19 00:24:02;;;;;;;15.82;8.10;;;27.80;85.90;;;;;;5129727;27;20045;-49
2021/03/19 00:26:29;;;;;;;17.08;8.35;;;27.80;85.90;;;;;;5124252;27;20027;-45
2021/03/19 00:28:56;;;;;;;16.65;7.35;;;27.70;85.90;;;;;;5131186;27;20023;-46
2021/03/19 00:31:24;;;;;;;11.25;7.60;;;27.70;85.90;;;;;;5115023;28;20015;-51
2021/03/19 00:33:50;;;;;;;17.45;7.78;;;27.70;85.90;;;;;;5116523;28;20322;-44
2021/03/19 00:36:17;;;;;;;15.07;7.35;;;27.70;86.00;;;;;;5116898;28;20028;-49
2021/03/19 00:38:44;;;;;;;15.40;7.22;;;27.70;85.90;;;;;;5116570;28;20035;-47
2021/03/19 00:41:11;;;;;;;11.43;7.75;;;27.70;85.90;;;;;;5117522;28;20278;-48
2021/03/19 00:43:38;;;;;;;12.35;7.28;;;27.70;85.90;;;;;;5115091;28;20092;-45
2021/03/19 00:46:05;;;;;;;14.85;7.60;;;27.70;85.90;;;;;;5116212;27;20015;-50
2021/03/19 00:48:34;;;;;;;17.70;9.90;;;27.70;85.90;;;;;;5115277;28;20050;-50
2021/03/19 00:51:01;;;;;;;15.52;9.60;;;27.70;85.90;;;;;;5116350;28;20050;-45
2021/03/19 00:53:29;;;;;;;17.77;9.18;;;27.70;85.60;;;;;;5113654;28;20032;-46
2021/03/19 00:55:56;;;;;;;17.20;9.32;;;27.70;85.70;;;;;;5105827;28;20033;-49
2021/03/19 00:58:23;;;;;;;16.65;8.60;;;27.60;85.50;;;;;;5106091;28;20036;-52
2021/03/19 01:00:50;;;;;;;16.55;8.38;;;27.60;85.50;;;;;;5109268;28;20365;-51
2021/03/19 01:03:18;;;;;;;21.77;8.00;;;27.50;85.50;;;;;;5115355;28;20020;-47
2021/03/19 01:05:46;;;;;;;17.58;7.32;;;27.50;85.50;;;;;;5115563;28;20028;-57
2021/03/19 01:08:15;;;;;;;17.67;7.68;;;27.50;85.50;;;;;;5114534;28;20039;-51
2021/03/19 01:10:52;;;;;;;14.70;7.32;;;27.50;85.30;;;;;;5115142;28;20079;-44
2021/03/19 01:13:19;;;;;;;15.73;7.40;;;27.50;85.30;;;;;;5114787;27;20034;-47
2021/03/19 01:15:46;;;;;;;12.82;7.20;;;27.50;85.30;;;;;;5114513;28;20082;-46
2021/03/19 01:18:16;;;;;;;13.45;7.13;;;27.50;85.20;;;;;;5114380;28;20265;-46
2021/03/19 01:20:44;;;;;;;13.18;7.03;;;27.40;85.20;;;;;;5117013;28;20197;-47
2021/03/19 01:23:12;;;;;;;12.95;7.15;;;27.40;85.00;;;;;;5113620;28;20034;-54
2021/03/19 01:25:40;;;;;;;14.43;7.50;;;27.40;85.20;;;;;;5114791;28;20019;-46
2021/03/19 01:28:07;;;;;;;17.92;8.02;;;27.40;85.10;;;;;;5114439;28;20036;-45
2021/03/19 01:30:38;;;;;;;15.90;8.23;;;27.40;84.90;;;;;;5113216;28;20024;-54
2021/03/19 01:33:05;;;;;;;16.20;7.25;;;27.40;85.00;;;;;;5119120;28;20083;-45
2021/03/19 01:35:34;;;;;;;12.50;7.60;;;27.40;85.00;;;;;;5125913;28;20026;-44
2021/03/19 01:38:01;;;;;;;15.00;7.63;;;27.40;84.80;;;;;;5124359;28;20308;-51
2021/03/19 01:40:35;;;;;;;18.60;7.43;;;27.30;84.70;;;;;;5124558;28;20307;-46
2021/03/19 01:43:27;;;;;;;15.05;7.28;;;27.30;84.80;;;;;;5123593;28;20019;-53
2021/03/19 01:46:21;;;;;;;15.90;7.50;;;27.30;85.00;;;;;;5125262;28;20019;-50
2021/03/19 01:49:26;;;;;;;15.98;7.60;;;27.30;85.40;;;;;;5125879;28;20125;-48
2021/03/19 01:52:29;;;;;;;16.30;8.23;;;27.30;85.30;;;;;;5125185;28;20237;-50
2021/03/19 01:55:32;;;;;;;23.33;8.48;;;27.20;85.00;;;;;;5125223;28;20091;-45
2021/03/19 01:58:36;;;;;;;12.27;7.63;;;27.20;85.10;;;;;;5125392;28;20031;-46
2021/03/19 02:01:40;;;;;;;18.65;7.63;;;27.20;85.10;;;;;;5125106;28;20027;-56
2021/03/19 02:04:45;;;;;;;13.70;7.30;;;27.20;85.30;;;;;;5124105;28;20150;-47
2021/03/19 02:07:59;;;;;;;13.43;7.60;;;27.20;84.60;;;;;;5125369;28;20012;-49
2021/03/19 02:11:02;;;;;;;13.05;7.22;;;27.10;83.70;;;;;;5092933;28;20042;-50
2021/03/19 02:14:05;;;;;;;17.10;7.07;;;27.00;83.00;;;;;;5125190;28;20030;-47
2021/03/19 02:17:09;;;;;;;12.30;6.63;;;26.90;82.80;;;;;;5124869;28;20024;-50
2021/03/19 02:20:13;;;;;;;8.20;6.22;;;26.90;82.50;;;;;;5124809;28;20046;-50
2021/03/19 02:23:16;;;;;;;12.93;6.50;;;26.90;82.70;;;;;;5124772;28;20020;-47
2021/03/19 02:26:20;;;;;;;11.32;6.28;;;26.90;82.70;;;;;;5124626;28;20062;-45
2021/03/19 02:29:24;;;;;;;10.93;6.10;;;26.90;82.80;;;;;;5125274;28;20093;-48
2021/03/19 02:32:13;;;;;;;16.88;6.47;;;26.90;82.70;;;;;;5124842;28;20026;-51
2021/03/19 02:34:47;;;;;;;14.13;6.88;;;26.90;82.40;;;;;;5124968;28;20030;-52
2021/03/19 02:37:21;;;;;;;11.48;6.53;;;26.90;82.60;;;;;;5124916;28;20047;-54
2021/03/19 02:39:48;;;;;;;11.52;6.30;;;26.90;82.50;;;;;;5123127;28;20338;-46
2021/03/19 02:42:18;;;;;;;13.35;5.95;;;26.90;83.00;;;;;;5124566;28;20027;-43
2021/03/19 02:44:45;;;;;;;11.65;6.22;;;26.90;83.10;;;;;;5124087;28;20334;-46
2021/03/19 02:47:14;;;;;;;13.65;6.82;;;26.90;83.60;;;;;;5124313;28;20367;-48
2021/03/19 02:49:43;;;;;;;12.15;6.60;;;26.90;83.40;;;;;;5125005;28;20055;-45
2021/03/19 02:52:13;;;;;;;11.52;6.05;;;27.00;83.40;;;;;;5124379;28;20023;-49
2021/03/19 02:54:41;;;;;;;13.38;6.18;;;26.90;83.20;;;;;;5122924;28;20098;-46
2021/03/19 02:57:08;;;;;;;10.57;5.95;;;26.90;83.10;;;;;;5124124;28;20249;-48
2021/03/19 02:59:36;;;;;;;13.30;6.65;;;26.90;83.10;;;;;;5124716;28;20315;-47
2021/03/19 03:02:04;;;;;;;14.18;6.35;;;26.90;83.00;;;;;;5124225;28;20092;-48
2021/03/19 03:04:31;;;;;;;9.73;6.47;;;26.90;82.90;;;;;;5124975;28;20020;-55
2021/03/19 03:06:59;;;;;;;12.10;6.30;;;26.90;82.80;;;;;;5123125;28;20020;-53
2021/03/19 03:09:29;;;;;;;12.18;6.43;;;26.90;82.80;;;;;;5124515;28;20357;-47
2021/03/19 03:11:59;;;;;;;11.70;6.50;;;26.90;82.60;;;;;;5124335;28;20248;-48
2021/03/19 03:14:29;;;;;;;10.70;6.13;;;26.90;82.70;;;;;;5124857;28;20109;-49
2021/03/19 03:17:01;;;;;;;11.77;6.03;;;26.90;82.20;;;;;;5122987;28;20094;-47
2021/03/19 03:19:29;;;;;;;14.02;6.28;;;26.80;81.90;;;;;;5124330;28;20063;-48
2021/03/19 03:21:56;;;;;;;11.63;6.15;;;26.80;81.90;;;;;;5124262;28;20081;-43
2021/03/19 03:24:25;;;;;;;11.35;5.75;;;26.80;82.00;;;;;;5124192;28;20091;-55
2021/03/19 03:26:52;;;;;;;10.45;6.28;;;26.80;81.90;;;;;;5123928;28;20020;-43
2021/03/19 03:29:20;;;;;;;13.50;6.57;;;26.80;82.00;;;;;;5123771;28;20090;-48
2021/03/19 03:31:47;;;;;;;12.77;5.90;;;26.80;81.80;;;;;;5123975;28;20068;-54
2021/03/19 03:34:14;;;;;;;12.32;6.40;;;26.70;81.90;;;;;;5123753;28;20098;-46
2021/03/19 03:36:41;;;;;;;13.32;6.18;;;26.80;81.40;;;;;;5124069;28;20211;-49
2021/03/19 03:39:14;;;;;;;9.45;5.60;;;26.80;80.90;;;;;;5124340;28;20044;-51
2021/03/19 03:41:42;;;;;;;12.77;6.15;;;26.80;80.70;;;;;;5124005;28;20015;-44
2021/03/19 03:44:13;;;;;;;12.60;6.00;;;26.80;80.40;;;;;;5124396;28;20027;-49
2021/03/19 03:46:41;;;;;;;11.10;6.32;;;26.80;80.40;;;;;;5124405;28;20057;-46
2021/03/19 03:49:08;;;;;;;13.65;6.13;;;26.80;80.10;;;;;;5124030;28;20031;-52
2021/03/19 03:51:35;;;;;;;11.40;6.38;;;26.80;80.30;;;;;;5123879;28;20020;-48
2021/03/19 03:54:02;;;;;;;9.30;6.00;;;26.70;80.30;;;;;;5124276;28;20038;-48
2021/03/19 03:56:29;;;;;;;13.20;6.10;;;26.70;80.30;;;;;;5124225;28;20300;-46
2021/03/19 03:58:56;;;;;;;53.65;9.77;;;26.70;79.80;;;;;;5124045;28;20349;-48
2021/03/19 04:01:24;;;;;;;15.70;6.07;;;26.70;79.80;;;;;;5123931;28;20111;-47
2021/03/19 04:03:50;;;;;;;9.75;6.00;;;26.70;80.00;;;;;;5123899;28;20043;-50
2021/03/19 04:06:17;;;;;;;11.57;6.43;;;26.70;79.60;;;;;;5126932;28;20019;-49
2021/03/19 04:08:44;;;;;;;15.80;6.35;;;26.70;79.70;;;;;;5127733;28;20334;-48
2021/03/19 04:11:15;;;;;;;10.75;6.00;;;26.70;80.00;;;;;;5127654;28;20030;-45
2021/03/19 04:13:42;;;;;;;17.95;6.05;;;26.70;80.00;;;;;;5127855;28;20028;-45
2021/03/19 04:16:10;;;;;;;10.45;5.90;;;26.70;79.80;;;;;;5127623;28;20334;-46
2021/03/19 04:18:37;;;;;;;11.73;6.35;;;26.70;79.30;;;;;;5127024;28;20271;-47
2021/03/19 04:21:09;;;;;;;9.25;5.90;;;26.70;79.90;;;;;;5127022;28;20049;-47
2021/03/19 04:23:42;;;;;;;10.68;6.35;;;26.60;79.70;;;;;;5127673;28;20049;-46
2021/03/19 04:26:30;;;;;;;10.27;5.95;;;26.60;80.10;;;;;;5126095;28;20011;-49
2021/03/19 04:28:57;;;;;;;16.05;6.78;;;26.60;80.10;;;;;;5127767;28;20034;-45
2021/03/19 04:31:25;;;;;;;15.88;6.85;;;26.60;80.60;;;;;;5127430;28;20043;-46
2021/03/19 04:33:52;;;;;;;12.63;6.57;;;26.60;80.50;;;;;;5127225;28;20035;-48
2021/03/19 04:36:33;;;;;;;11.20;6.63;;;26.60;80.80;;;;;;5127059;28;20031;-50
2021/03/19 04:39:04;;;;;;;10.90;6.70;;;26.60;80.90;;;;;;5127134;28;20032;-50
2021/03/19 04:41:31;;;;;;;13.85;6.38;;;26.60;81.20;;;;;;5126477;28;20050;-49
2021/03/19 04:43:59;;;;;;;12.93;6.50;;;26.60;81.10;;;;;;5127302;28;20030;-47
2021/03/19 04:46:25;;;;;;;9.05;6.32;;;26.50;81.20;;;;;;5126915;28;20075;-47
2021/03/19 04:48:52;;;;;;;11.07;6.97;;;26.50;81.50;;;;;;5127255;28;20027;-46
2021/03/19 04:51:19;;;;;;;13.30;6.80;;;26.50;81.60;;;;;;5127065;28;20012;-50
2021/03/19 04:53:53;;;;;;;13.77;6.70;;;26.50;82.00;;;;;;5126827;28;20076;-45
2021/03/19 04:56:21;;;;;;;13.48;6.82;;;26.50;82.40;;;;;;5126804;28;20047;-55
2021/03/19 04:58:48;;;;;;;14.93;6.82;;;26.50;82.30;;;;;;5126936;28;20028;-51
2021/03/19 05:01:15;;;;;;;14.18;6.55;;;26.40;82.70;;;;;;5126795;28;20031;-50
2021/03/19 05:03:42;;;;;;;14.45;7.35;;;26.40;83.00;;;;;;5127095;28;20026;-52
2021/03/19 05:06:09;;;;;;;14.35;7.28;;;26.30;83.00;;;;;;5126563;28;20030;-50
2021/03/19 05:08:36;;;;;;;13.13;7.57;;;26.30;82.80;;;;;;5126955;28;20098;-54
2021/03/19 05:11:03;;;;;;;12.43;7.10;;;26.30;83.40;;;;;;5126662;28;20061;-50
2021/03/19 05:13:30;;;;;;;10.70;6.60;;;26.30;82.90;;;;;;5126769;28;20068;-55
2021/03/19 05:15:56;;;;;;;12.88;7.10;;;26.30;82.60;;;;;;5126699;28;20035;-52
2021/03/19 05:18:24;;;;;;;13.25;6.53;;;26.30;82.50;;;;;;5126246;27;20050;-54
2021/03/19 05:20:51;;;;;;;16.33;6.45;;;26.30;82.30;;;;;;5126355;28;20022;-54
2021/03/19 05:23:22;;;;;;;12.15;6.53;;;26.30;81.90;;;;;;5126400;28;20024;-53
2021/03/19 05:25:49;;;;;;;11.93;6.15;;;26.30;81.80;;;;;;5126217;28;20047;-55
2021/03/19 05:28:16;;;;;;;13.00;7.10;;;26.30;81.90;;;;;;5126285;28;20027;-57
2021/03/19 05:30:43;;;;;;;11.07;6.18;;;26.30;81.80;;;;;;5126234;28;20035;-52
2021/03/19 05:33:09;;;;;;;7.32;5.68;;;26.30;81.40;;;;;;5126245;28;20030;-47
2021/03/19 05:35:37;;;;;;;11.10;5.93;;;26.30;81.40;;;;;;5126036;28;20132;-50
2021/03/19 05:38:04;;;;;;;8.02;5.70;;;26.30;81.30;;;;;;5125688;28;20042;-45
2021/03/19 05:40:36;;;;;;;8.88;5.70;;;26.30;81.50;;;;;;5125969;28;20020;-47
2021/03/19 05:43:20;;;;;;;13.80;6.00;;;26.30;81.20;;;;;;5126026;28;20015;-46
2021/03/19 05:46:07;;;;;;;10.98;6.10;;;26.30;81.00;;;;;;5126031;28;20227;-52
2021/03/19 05:48:53;;;;;;;11.15;5.78;;;26.30;80.90;;;;;;5126115;28;20031;-48
2021/03/19 05:51:49;;;;;;;11.60;6.40;;;26.30;80.90;;;;;;5126085;28;20046;-46
2021/03/19 05:54:27;;;;;;;10.50;6.45;;;26.30;80.70;;;;;;5126095;28;20068;-45
2021/03/19 05:57:22;;;;;;;8.63;5.50;;;26.30;80.60;;;;;;5125608;28;20034;-47
2021/03/19 05:59:52;;;;;;;11.27;6.38;;;26.30;80.60;;;;;;5107437;28;20220;-44
2021/03/19 06:02:38;;;;;;;12.02;5.93;;;26.30;80.80;;;;;;5125649;28;20022;-47
2021/03/19 06:05:13;;;;;;;8.57;5.85;;;26.30;80.50;;;;;;5125143;28;20024;-44
2021/03/19 06:07:55;;;;;;;11.07;6.28;;;26.30;80.50;;;;;;5125692;28;20099;-43
2021/03/19 06:10:25;;;;;;;13.02;6.57;;;26.30;80.70;;;;;;5125671;28;20015;-50
2021/03/19 06:13:17;;;;;;;9.63;5.70;;;26.30;80.60;;;;;;5125308;28;20020;-47
2021/03/19 06:16:21;;;;;;;9.77;6.00;;;26.30;80.30;;;;;;5086705;28;20107;-44
2021/03/19 06:18:50;;;;;;;8.13;6.00;;;26.30;80.20;;;;;;5125115;28;20051;-46
2021/03/19 06:21:19;;;;;;;9.77;6.30;;;26.30;80.50;;;;;;5125236;28;20022;-48
2021/03/19 06:24:22;;;;;;;10.98;5.82;;;26.30;80.50;;;;;;5125424;28;20147;-55
2021/03/19 06:26:49;;;;;;;13.05;6.18;;;26.30;80.50;;;;;;5125227;28;20079;-52
2021/03/19 06:29:21;;;;;;;9.48;6.38;;;26.30;80.40;;;;;;5124962;28;20034;-47
2021/03/19 06:32:12;;;;;;;10.02;6.28;;;26.20;80.40;;;;;;5125011;28;20275;-46
2021/03/19 06:35:06;;;;;;;9.55;6.25;;;26.30;80.50;;;;;;5125282;28;20084;-51
2021/03/19 06:37:39;;;;;;;9.20;6.15;;;26.30;80.40;;;;;;5116519;28;20027;-50
2021/03/19 06:40:29;;;;;;;9.25;6.32;;;26.30;80.50;;;;;;5124717;28;20312;-53
2021/03/19 06:43:36;;;;;;;12.10;6.40;;;26.30;80.30;;;;;;5112808;28;20234;-53
2021/03/19 06:46:40;;;;;;;9.75;6.20;;;26.30;80.40;;;;;;5121061;28;20027;-51
2021/03/19 06:49:08;;;;;;;9.73;6.15;;;26.30;80.50;;;;;;5125076;28;20027;-48
2021/03/19 06:51:39;;;;;;;10.63;6.47;;;26.30;80.50;;;;;;5124591;28;20016;-50
2021/03/19 06:54:10;;;;;;;11.35;6.63;;;26.30;80.50;;;;;;5125056;28;20039;-48
2021/03/19 06:56:38;;;;;;;10.13;6.65;;;26.30;80.30;;;;;;5124629;28;20022;-50
2021/03/19 06:59:18;;;;;;;10.18;6.13;;;26.30;80.40;;;;;;5124827;28;20031;-46
2021/03/19 07:01:45;;;;;;;9.48;6.15;;;26.30;80.60;;;;;;5124723;28;20037;-52
2021/03/19 07:04:33;;;;;;;9.80;6.38;;;26.30;80.60;;;;;;5124842;28;20031;-53
2021/03/19 07:07:13;;;;;;;11.43;6.35;;;26.30;80.30;;;;;;5124450;28;20026;-53
2021/03/19 07:09:51;;;;;;;9.80;5.95;;;26.30;80.60;;;;;;5125015;28;20066;-56
2021/03/19 07:13:05;;;;;;;10.25;6.20;;;26.30;80.60;;;;;;5124558;28;20020;-45
2021/03/19 07:15:42;;;;;;;14.30;6.50;;;26.30;80.40;;;;;;5093138;28;20209;-51
2021/03/19 07:18:23;;;;;;;10.98;6.75;;;26.30;80.40;;;;;;5124129;28;20077;-53
2021/03/19 07:21:11;;;;;;;8.68;6.00;;;26.30;80.40;;;;;;5124362;28;20024;-54
2021/03/19 07:23:52;;;;;;;12.82;5.93;;;26.30;80.20;;;;;;5124465;28;20086;-50
2021/03/19 07:26:30;;;;;;;12.38;6.57;;;26.30;80.20;;;;;;5124235;28;20035;-50
2021/03/19 07:29:29;;;;;;;7.78;6.20;;;26.30;80.30;;;;;;5124476;28;20024;-44
2021/03/19 07:32:18;;;;;;;10.68;6.57;;;26.30;80.60;;;;;;5108890;28;20028;-50
2021/03/19 07:35:24;;;;;;;7.55;6.28;;;26.30;80.20;;;;;;5124623;28;20069;-41
2021/03/19 07:38:23;;;;;;;11.85;5.90;;;26.30;80.00;;;;;;5037358;28;20034;-46
2021/03/19 07:41:24;;;;;;;15.88;6.10;;;26.30;80.00;;;;;;5126434;28;20018;-52
2021/03/19 07:44:12;;;;;;;10.40;6.05;;;26.30;80.10;;;;;;5128716;28;20024;-50
2021/03/19 07:46:49;;;;;;;12.40;6.28;;;26.30;79.90;;;;;;5128450;28;20212;-45
2021/03/19 07:49:50;;;;;;;9.23;5.82;;;26.30;79.90;;;;;;5128369;28;20032;-51
2021/03/19 07:52:30;;;;;;;8.80;6.40;;;26.30;79.80;;;;;;5038090;28;20029;-53
2021/03/19 07:55:12;;;;;;;9.45;6.75;;;26.30;80.00;;;;;;5127924;28;20038;-52
2021/03/19 07:57:50;;;;;;;7.85;5.88;;;26.30;79.80;;;;;;5128034;28;20083;-46
2021/03/19 08:00:22;;;;;;;11.00;6.00;;;26.40;79.80;;;;;;5127921;28;20307;-52
2021/03/19 08:03:00;;;;;;;;;;;26.40;79.90;;;;;;5128767;28;20024;-53
2021/03/19 08:05:28;;;;;;;11.32;6.18;;;26.40;80.00;;;;;;5127830;28;20089;-55
2021/03/19 08:08:15;;;;;;;9.60;5.50;;;26.40;79.80;;;;;;5127680;28;20065;-48
2021/03/19 08:11:15;;;;;;;9.32;5.80;;;26.40;80.00;;;;;;5127800;28;20031;-57
2021/03/19 08:13:52;;;;;;;8.50;5.90;;;26.40;80.20;;;;;;5127860;28;20027;-51
2021/03/19 08:16:21;;;;;;;9.02;6.00;;;26.40;80.00;;;;;;5127772;28;20015;-50
2021/03/19 08:19:10;;;;;;;9.35;6.28;;;26.30;80.10;;;;;;5127398;28;20039;-48
2021/03/19 08:22:06;;;;;;;10.70;6.60;;;26.30;80.00;;;;;;5127644;28;20024;-45
2021/03/19 08:25:17;;;;;;;9.85;6.63;;;26.30;80.50;;;;;;5127884;28;20046;-46
2021/03/19 08:28:31;;;;;;;10.82;6.18;;;26.30;80.50;;;;;;5025058;28;20238;-52
2021/03/19 08:31:04;;;;;;;9.70;6.35;;;26.40;80.90;;;;;;5091459;28;20055;-46
2021/03/19 08:33:58;;;;;;;9.75;6.53;;;26.30;81.20;;;;;;5127406;28;20029;-45
2021/03/19 08:36:46;;;;;;;9.80;6.80;;;26.30;81.40;;;;;;5127243;28;20043;-51
2021/03/19 08:39:25;;;;;;;13.80;6.70;;;26.30;81.10;;;;;;5127430;28;20027;-46
2021/03/19 08:42:15;;;;;;;9.55;6.43;;;26.30;81.10;;;;;;5127212;28;20007;-45
2021/03/19 08:44:43;;;;;;;9.68;6.30;;;26.30;80.80;;;;;;5127548;28;20199;-40
2021/03/19 08:47:20;;;;;;;9.55;6.40;;;26.30;81.30;;;;;;5126979;28;20015;-50
2021/03/19 08:49:55;;;;;;;13.45;7.07;;;26.30;80.90;;;;;;5127238;28;20038;-47
2021/03/19 08:52:35;;;;;;;14.88;7.00;;;26.30;80.70;;;;;;5126718;28;20022;-51
2021/03/19 08:55:17;;;;;;;11.05;6.80;;;26.30;80.70;;;;;;5127131;28;20015;-47
2021/03/19 08:57:47;;;;;;;14.52;7.15;;;26.30;80.80;;;;;;5126928;28;20340;-45
2021/03/19 09:00:35;;;;;;;10.40;6.63;;;26.40;80.70;;;;;;5126725;28;20024;-46
2021/03/19 09:03:06;;;;;;;10.30;6.63;;;26.40;80.80;;;;;;5126614;28;20027;-46
2021/03/19 09:06:15;;;;;;;11.07;7.30;;;26.40;81.00;;;;;;5126606;28;20036;-45
2021/03/19 09:08:45;;;;;;;11.82;6.85;;;26.40;80.90;;;;;;5024431;28;20061;-45
2021/03/19 09:11:19;;;;;;;12.77;6.55;;;26.40;81.00;;;;;;5024269;28;20087;-45
2021/03/19 09:14:04;;;;;;;12.00;6.38;;;26.40;80.70;;;;;;5080544;28;20035;-48
2021/03/19 09:16:43;;;;;;;11.90;6.65;;;26.40;80.70;;;;;;5126374;28;20026;-52
2021/03/19 09:19:28;;;;;;;11.02;6.60;;;26.30;80.70;;;;;;5126215;28;20072;-54
2021/03/19 09:22:21;;;;;;;9.23;6.47;;;26.40;80.80;;;;;;5126160;28;20185;-50
2021/03/19 09:25:13;;;;;;;15.80;7.10;;;26.40;80.70;;;;;;5126316;28;20223;-50
2021/03/19 09:28:04;;;;;;;14.77;6.63;;;26.40;80.60;;;;;;5126250;28;20211;-49
2021/03/19 09:31:13;;;;;;;10.35;6.50;;;26.40;80.60;;;;;;5125953;28;20326;-55
2021/03/19 09:33:45;;;;;;;11.88;6.68;;;26.30;80.70;;;;;;5069544;28;20073;-46
2021/03/19 09:36:49;;;;;;;16.67;7.15;;;26.30;80.60;;;;;;5126095;28;20022;-48
2021/03/19 09:39:49;;;;;;;12.75;6.18;;;26.40;80.80;;;;;;5126313;28;20054;-44
2021/03/19 09:42:18;;;;;;;10.85;6.40;;;26.30;81.00;;;;;;5126286;28;20016;-48
2021/03/19 09:44:49;;;;;;;11.95;7.18;;;26.30;81.00;;;;;;5126500;28;20027;-46
2021/03/19 09:47:17;;;;;;;8.98;6.35;;;26.30;81.20;;;;;;5125524;28;20075;-51
2021/03/19 09:49:44;;;;;;;12.57;7.43;;;26.30;81.50;;;;;;5126491;28;20027;-48
2021/03/19 09:52:16;;;;;;;8.25;6.10;;;26.30;81.00;;;;;;5125901;28;20096;-50
2021/03/19 09:54:43;;;;;;;12.10;7.20;;;26.30;80.90;;;;;;5126196;28;20030;-46
2021/03/19 09:57:22;;;;;;;9.90;6.65;;;26.30;81.10;;;;;;5125975;28;20023;-45
2021/03/19 10:00:29;;;;;;;9.35;6.13;;;26.30;81.20;;;;;;5125755;28;20027;-46
2021/03/19 10:03:16;;;;;;;9.65;6.78;;;26.30;81.30;;;;;;5111773;28;20032;-47
2021/03/19 10:05:46;;;;;;;13.30;6.25;;;26.30;81.40;;;;;;5125650;28;20012;-48
2021/03/19 10:08:28;;;;;;;10.18;6.80;;;26.30;81.30;;;;;;5125451;28;20034;-44
2021/03/19 10:11:10;;;;;;;11.02;7.25;;;26.40;81.00;;;;;;5125635;28;20020;-45
2021/03/19 10:13:36;;;;;;;9.75;6.40;;;26.40;81.20;;;;;;5125597;28;20031;-44
2021/03/19 10:16:04;;;;;;;13.27;7.05;;;26.30;80.80;;;;;;5125648;28;20015;-46
2021/03/19 10:18:33;;;;;;;10.55;6.88;;;26.30;80.90;;;;;;5125196;28;20043;-52
2021/03/19 10:21:12;;;;;;;11.55;6.43;;;26.30;81.60;;;;;;5125236;28;20311;-53
2021/03/19 10:23:42;;;;;;;13.05;7.18;;;26.30;81.00;;;;;;5125436;28;20019;-48
2021/03/19 10:26:39;;;;;;;11.27;7.00;;;26.30;81.00;;;;;;5125029;28;20014;-54
2021/03/19 10:29:11;;;;;;;13.52;6.97;;;26.30;80.70;;;;;;5125434;28;20087;-54
2021/03/19 10:32:08;;;;;;;10.85;6.30;;;26.30;81.10;;;;;;5124987;28;20024;-44
2021/03/19 10:34:38;;;;;;;11.57;7.80;;;26.30;80.90;;;;;;5125438;28;20031;-52
2021/03/19 10:37:05;;;;;;;10.77;7.30;;;26.30;81.00;;;;;;5125222;28;20268;-50
2021/03/19 10:39:44;;;;;;;11.25;7.20;;;26.30;81.00;;;;;;5125211;28;20315;-47
2021/03/19 10:42:42;;;;;;;12.38;7.40;;;26.30;81.20;;;;;;5124792;28;20015;-50
2021/03/19 10:45:27;;;;;;;11.48;7.43;;;26.30;80.90;;;;;;5124769;28;20031;-52
2021/03/19 10:48:20;;;;;;;15.63;7.68;;;26.30;80.90;;;;;;5124784;28;20023;-50
2021/03/19 10:51:01;;;;;;;11.63;7.75;;;26.30;80.90;;;;;;5120393;28;20027;-51
2021/03/19 10:53:43;;;;;;;10.82;6.93;;;26.30;81.40;;;;;;5124810;28;20062;-48
2021/03/19 10:56:11;;;;;;;10.25;6.47;;;26.30;82.40;;;;;;5124658;28;20020;-49
2021/03/19 10:58:42;;;;;;;14.93;7.18;;;26.30;82.60;;;;;;5124900;28;20027;-53
2021/03/19 11:01:34;;;;;;;14.13;6.57;;;26.30;82.90;;;;;;5124370;28;20354;-53
2021/03/19 11:04:26;;;;;;;16.90;6.43;;;26.30;83.40;;;;;;5113452;28;20099;-52
2021/03/19 11:06:54;;;;;;;9.70;6.60;;;26.30;83.40;;;;;;5124662;28;20016;-50
2021/03/19 11:09:24;;;;;;;17.77;6.70;;;26.30;83.50;;;;;;5124695;28;20027;-54
2021/03/19 11:11:59;;;;;;;15.23;6.78;;;26.30;83.30;;;;;;5124528;28;20026;-45
2021/03/19 11:14:29;;;;;;;16.70;6.70;;;26.30;83.60;;;;;;5124866;28;20027;-47
2021/03/19 11:17:14;;;;;;;15.57;7.10;;;26.30;84.20;;;;;;5124888;28;20205;-50
2021/03/19 11:20:20;;;;;;;16.00;7.40;;;26.30;83.70;;;;;;5124700;28;20335;-47
2021/03/19 11:22:48;;;;;;;14.93;8.07;;;26.30;84.80;;;;;;5022015;28;20294;-53
2021/03/19 11:25:40;;;;;;;35.17;9.68;;;26.30;84.90;;;;;;5022232;28;20014;-55
2021/03/19 11:28:39;;;;;;;18.50;7.82;;;26.30;84.40;;;;;;5090990;28;20042;-47
2021/03/19 11:31:22;;;;;;;15.95;8.02;;;26.30;84.70;;;;;;5081734;28;20034;-47
2021/03/19 11:33:55;;;;;;;17.75;7.95;;;26.30;85.10;;;;;;5124477;28;20046;-50
2021/03/19 11:36:23;;;;;;;12.63;8.10;;;26.30;85.20;;;;;;5124152;28;20234;-44
2021/03/19 11:38:51;;;;;;;12.25;8.05;;;26.30;86.00;;;;;;5124290;28;20030;-45
2021/03/19 11:41:31;;;;;;;17.58;8.00;;;26.30;86.30;;;;;;5123991;28;20023;-45
2021/03/19 11:43:59;;;;;;;31.80;13.13;;;26.30;85.90;;;;;;5123913;28;20023;-50
2021/03/19 11:46:27;;;;;;;37.33;14.43;;;26.30;85.40;;;;;;5123797;28;20042;-45
2021/03/19 11:48:54;;;;;;;32.85;14.60;;;26.30;85.60;;;;;;5124218;28;20020;-49
2021/03/19 11:51:31;;;;;;;37.83;15.07;;;26.30;86.00;;;;;;5123876;28;20034;-46
2021/03/19 11:54:05;;;;;;;27.15;13.30;;;26.30;86.20;;;;;;5124199;28;20125;-45
2021/03/19 11:56:32;;;;;;;29.85;12.35;;;26.30;86.50;;;;;;5123823;28;20270;-46
2021/03/19 11:58:59;;;;;;;19.23;10.40;;;26.30;86.40;;;;;;5123905;28;20095;-52
2021/03/19 12:01:29;;;;;;;29.98;11.13;;;26.30;85.90;;;;;;5123997;28;20193;-46
2021/03/19 12:03:56;;;;;;;19.38;10.77;;;26.40;86.40;;;;;;5124086;28;20031;-47
2021/03/19 12:06:32;;;;;;;20.60;10.55;;;26.30;86.50;;;;;;5123662;28;20065;-47
2021/03/19 12:08:59;;;;;;;21.90;11.23;;;26.40;87.20;;;;;;5123650;28;20094;-52
2021/03/19 12:11:40;;;;;;;19.52;10.32;;;26.30;86.90;;;;;;5123608;28;20035;-52
2021/03/19 12:14:19;;;;;;;21.40;10.77;;;26.40;86.90;;;;;;5124074;28;20027;-53
2021/03/19 12:16:46;;;;;;;19.63;11.32;;;26.40;86.90;;;;;;5123488;28;20046;-48
2021/03/19 12:19:15;;;;;;;22.20;14.38;;;26.40;87.30;;;;;;5123598;28;20096;-47
2021/03/19 12:21:43;;;;;;;18.00;9.60;;;26.40;87.00;;;;;;5123484;28;20016;-52
2021/03/19 12:24:10;;;;;;;15.73;8.75;;;26.40;86.80;;;;;;5123772;28;20028;-49
2021/03/19 12:26:37;;;;;;;77.75;13.43;;;26.40;86.70;;;;;;5125489;28;20043;-49
2021/03/19 12:29:04;;;;;;;22.58;8.88;;;26.40;86.50;;;;;;5127853;28;20035;-45
2021/03/19 12:31:31;;;;;;;15.68;7.78;;;26.40;86.30;;;;;;5127273;28;20012;-43
2021/03/19 12:33:57;;;;;;;15.02;8.13;;;26.40;86.40;;;;;;5127473;28;20038;-49
2021/03/19 12:36:24;;;;;;;16.63;7.75;;;26.30;86.20;;;;;;5127225;28;20108;-40
2021/03/19 12:38:52;;;;;;;13.70;7.22;;;26.40;86.20;;;;;;5127175;28;20034;-47
2021/03/19 12:41:18;;;;;;;13.55;7.53;;;26.40;86.20;;;;;;5127192;28;20204;-48
2021/03/19 12:43:45;;;;;;;24.08;9.38;;;26.40;86.30;;;;;;5127467;28;20083;-45
2021/03/19 12:46:13;;;;;;;15.10;7.25;;;26.40;86.30;;;;;;5127036;28;20316;-55
2021/03/19 12:48:41;;;;;;;14.80;7.30;;;26.40;86.10;;;;;;5127228;28;20035;-44
2021/03/19 12:51:08;;;;;;;12.43;7.75;;;26.40;86.00;;;;;;5126961;28;20312;-48
2021/03/19 12:53:35;;;;;;;17.08;6.95;;;26.40;86.10;;;;;;5127113;28;20027;-51
2021/03/19 12:56:06;;;;;;;15.07;7.13;;;26.30;85.90;;;;;;5126786;28;20027;-52
2021/03/19 12:58:34;;;;;;;14.95;6.80;;;26.40;85.80;;;;;;5126940;28;20031;-48
2021/03/19 13:01:01;;;;;;;13.73;7.30;;;26.40;85.70;;;;;;5126931;28;20015;-43
2021/03/19 13:03:27;;;;;;;13.30;6.65;;;26.30;85.70;;;;;;5126900;28;20019;-49
2021/03/19 13:05:54;;;;;;;12.43;6.88;;;26.30;85.70;;;;;;5126558;28;20053;-49
2021/03/19 13:08:21;;;;;;;14.50;7.00;;;26.40;85.70;;;;;;5126603;28;20058;-53
2021/03/19 13:10:48;;;;;;;12.63;6.47;;;26.40;85.80;;;;;;5126460;28;20054;-54
2021/03/19 13:13:15;;;;;;;13.07;6.60;;;26.40;85.60;;;;;;5108291;28;20106;-51
2021/03/19 13:15:44;;;;;;;16.15;6.95;;;26.40;85.60;;;;;;5126453;28;20024;-48
2021/03/19 13:18:12;;;;;;;13.98;6.80;;;26.40;85.50;;;;;;5126275;28;20373;-57
2021/03/19 13:20:39;;;;;;;10.18;6.60;;;26.40;85.60;;;;;;5126474;28;20026;-52
2021/03/19 13:23:07;;;;;;;13.23;7.28;;;26.40;85.40;;;;;;5126132;28;20031;-48
2021/03/19 13:25:36;;;;;;;11.07;7.40;;;26.40;85.50;;;;;;5126549;28;20016;-53